createdAt,value
2022-09-14T00:02:43.302Z,95492.16
2022-09-14T00:05:29.403Z,95498.31
2022-09-14T00:08:15.422Z,95496.59
2022-09-14T00:11:10.311Z,95492.88
2022-09-14T00:13:57.937Z,95501.25
2022-09-14T00:16:44.679Z,95497.66
2022-09-14T00:19:30.579Z,95495.38
2022-09-14T00:22:16.498Z,95505.50
2022-09-14T00:25:02.274Z,95500.38
2022-09-14T00:27:47.889Z,95500.28
2022-09-14T00:30:33.609Z,95500.28
2022-09-14T00:33:19.571Z,95508.00
2022-09-14T00:36:11.362Z,95506.31
2022-09-14T00:38:58.196Z,95497.34
2022-09-14T00:41:46.519Z,95509.41
2022-09-14T00:44:32.622Z,95508.91
2022-09-14T00:47:18.413Z,95510.72
2022-09-14T00:50:05.711Z,95510.53
2022-09-14T00:52:51.574Z,95514.38
2022-09-14T00:55:37.823Z,95513.25
2022-09-14T00:58:23.879Z,95514.38
2022-09-14T01:01:10.494Z,95506.88
2022-09-14T01:03:56.522Z,95500.28
2022-09-14T01:06:53.873Z,95503.72
2022-09-14T01:09:46.713Z,95505.53
2022-09-14T01:12:45.338Z,95513.25
2022-09-14T01:15:43.139Z,95508.16
2022-09-14T01:18:51.210Z,95507.81
2022-09-14T01:21:42.093Z,95513.06
2022-09-14T01:24:49.644Z,95514.75
2022-09-14T01:27:41.809Z,95513.53
2022-09-14T01:30:29.003Z,95512.81
2022-09-14T01:33:18.370Z,95519.78
2022-09-14T01:36:07.082Z,95521.69
2022-09-14T01:38:54.070Z,95523.97
2022-09-14T01:41:40.183Z,95524.75
2022-09-14T01:44:30.214Z,95520.78
2022-09-14T01:47:20.565Z,95518.06
2022-09-14T01:50:14.734Z,95516.00
2022-09-14T01:53:43.907Z,95521.25
2022-09-14T01:56:37.564Z,95524.88
2022-09-14T01:59:26.587Z,95517.84
2022-09-14T02:02:26.334Z,95523.63
2022-09-14T02:05:31.169Z,95513.75
2022-09-14T02:08:17.532Z,95527.03
2022-09-14T02:11:03.459Z,95519.88
2022-09-14T02:13:49.268Z,95523.75
2022-09-14T02:16:35.832Z,95518.97
2022-09-14T02:19:23.961Z,95513.06
2022-09-14T02:22:10.064Z,95508.75
2022-09-14T02:24:56.842Z,95511.00
2022-09-14T02:27:42.961Z,95516.44
2022-09-14T02:30:38.105Z,95504.88
2022-09-14T02:33:35.157Z,95512.84
2022-09-14T02:36:38.912Z,95507.59
2022-09-14T02:40:14.537Z,95505.91
2022-09-14T02:43:21.417Z,95511.44
2022-09-14T02:46:06.976Z,95509.88
2022-09-14T02:49:02.062Z,95503.53
2022-09-14T02:51:47.528Z,95510.56
2022-09-14T02:54:46.341Z,95512.69
2022-09-14T02:57:32.109Z,95515.09
2022-09-14T03:00:17.884Z,95500.34
2022-09-14T03:03:05.161Z,95503.25
2022-09-14T03:05:51.313Z,95500.66
2022-09-14T03:08:37.535Z,95495.56
2022-09-14T03:11:23.296Z,95491.56
2022-09-14T03:14:11.017Z,95492.28
2022-09-14T03:16:56.644Z,95489.88
2022-09-14T03:19:42.419Z,95491.47
2022-09-14T03:22:28.154Z,95498.38
2022-09-14T03:25:14.691Z,95497.59
2022-09-14T03:28:00.593Z,95506.88
2022-09-14T03:30:46.634Z,95514.56
2022-09-14T03:33:32.431Z,95509.81
2022-09-14T03:36:19.426Z,95517.53
2022-09-14T03:39:05.425Z,95513.88
2022-09-14T03:41:51.123Z,95520.91
2022-09-14T03:44:36.861Z,95520.78
2022-09-14T03:47:22.800Z,95524.31
2022-09-14T03:50:10.895Z,95525.00
2022-09-14T03:52:57.078Z,95517.97
2022-09-14T03:55:43.190Z,95513.84
2022-09-14T03:58:32.007Z,95518.38
2022-09-14T04:01:21.057Z,95525.41
2022-09-14T04:04:06.870Z,95524.50
2022-09-14T04:06:52.529Z,95533.13
2022-09-14T04:09:38.826Z,95534.25
2022-09-14T04:12:25.239Z,95540.03
2022-09-14T04:15:10.886Z,95529.16
2022-09-14T04:17:56.883Z,95538.09
2022-09-14T04:20:42.530Z,95550.13
2022-09-14T04:23:28.539Z,95552.38
2022-09-14T04:26:17.230Z,95551.91
2022-09-14T04:29:03.633Z,95553.03
2022-09-14T04:31:49.387Z,95551.44
2022-09-14T04:34:35.709Z,95555.31
2022-09-14T04:37:21.513Z,95541.91
2022-09-14T04:40:07.738Z,95554.06
2022-09-14T04:42:53.718Z,95541.91
2022-09-14T04:45:39.312Z,95545.91
2022-09-14T04:48:25.033Z,95534.22
2022-09-14T04:51:16.703Z,95534.22
2022-09-14T04:54:04.543Z,95532.63
2022-09-14T04:56:50.430Z,95530.88
2022-09-14T04:59:36.134Z,95530.09
2022-09-14T05:02:22.059Z,95528.63
2022-09-14T05:05:08.642Z,95534.88
2022-09-14T05:07:54.284Z,95549.59
2022-09-14T05:10:39.999Z,95554.88
2022-09-14T05:13:26.037Z,95553.59
2022-09-14T05:16:25.370Z,95562.09
2022-09-14T05:19:14.507Z,95567.53
2022-09-14T05:22:00.277Z,95568.34
2022-09-14T05:24:45.893Z,95570.72
2022-09-14T05:27:31.659Z,95569.28
2022-09-14T05:30:17.507Z,95564.63
2022-09-14T05:33:03.524Z,95567.78
2022-09-14T05:35:50.399Z,95561.69
2022-09-14T05:38:38.130Z,95554.63
2022-09-14T05:41:23.971Z,95569.50
2022-09-14T05:44:09.641Z,95555.09
2022-09-14T05:46:55.448Z,95549.31
2022-09-14T05:49:41.305Z,95550.59
2022-09-14T05:52:29.589Z,95560.34
2022-09-14T05:55:15.722Z,95554.91
2022-09-14T05:58:01.775Z,95548.09
2022-09-14T06:00:48.106Z,95559.59
2022-09-14T06:03:34.100Z,95560.41
2022-09-14T06:06:21.000Z,95568.34
2022-09-14T06:09:06.983Z,95568.00
2022-09-14T06:11:52.937Z,95567.22
2022-09-14T06:14:38.481Z,95567.22
2022-09-14T06:17:24.330Z,95568.94
2022-09-14T06:20:10.693Z,95565.09
2022-09-14T06:22:56.515Z,95558.59
2022-09-14T06:25:44.738Z,95558.44
2022-09-14T06:28:31.107Z,95564.78
2022-09-14T06:31:18.449Z,95568.91
2022-09-14T06:34:04.960Z,95563.91
2022-09-14T06:36:50.811Z,95562.09
2022-09-14T06:39:36.968Z,95557.56
2022-09-14T06:42:22.712Z,95558.47
2022-09-14T06:45:11.164Z,95566.28
2022-09-14T06:47:57.690Z,95567.56
2022-09-14T06:50:43.860Z,95569.50
2022-09-14T06:53:29.625Z,95571.22
2022-09-14T06:56:17.360Z,95574.41
2022-09-14T06:59:04.595Z,95577.69
2022-09-14T07:01:50.813Z,95579.41
2022-09-14T07:04:37.058Z,95574.84
2022-09-14T07:07:23.050Z,95577.34
2022-09-14T07:10:08.808Z,95570.06
2022-09-14T07:12:55.294Z,95580.09
2022-09-14T07:15:40.819Z,95573.94
2022-09-14T07:18:32.272Z,95580.75
2022-09-14T07:21:19.458Z,95572.25
2022-09-14T07:24:05.378Z,95573.13
2022-09-14T07:26:51.200Z,95572.13
2022-09-14T07:29:36.939Z,95576.66
2022-09-14T07:32:22.801Z,95567.13
2022-09-14T07:35:08.866Z,95568.13
2022-09-14T07:37:55.000Z,95565.97
2022-09-14T07:40:40.825Z,95567.31
2022-09-14T07:43:26.778Z,95564.91
2022-09-14T07:46:12.974Z,95561.91
2022-09-14T07:49:02.376Z,95559.75
2022-09-14T07:51:49.010Z,95566.66
2022-09-14T07:54:35.616Z,95554.59
2022-09-14T07:57:33.993Z,95550.47
2022-09-14T08:00:27.364Z,95542.34
2022-09-14T08:03:13.030Z,95554.84
2022-09-14T08:06:03.132Z,95543.56
2022-09-14T08:08:50.578Z,95538.53
2022-09-14T08:11:37.163Z,95532.13
2022-09-14T08:14:23.473Z,95527.41
2022-09-14T08:17:10.726Z,95525.31
2022-09-14T08:19:57.017Z,95526.28
2022-09-14T08:22:44.814Z,95517.94
2022-09-14T08:25:31.359Z,95515.84
2022-09-14T08:28:17.321Z,95522.44
2022-09-14T08:48:06.231Z,95527.84
2022-09-14T09:04:14.026Z,95515.34
2022-09-14T09:07:11.954Z,95502.66
2022-09-14T09:09:58.272Z,95502.94
2022-09-14T09:12:58.758Z,95502.94
2022-09-14T09:15:53.327Z,95502.66
2022-09-14T09:19:01.707Z,95499.22
2022-09-14T09:21:48.359Z,95491.44
2022-09-14T09:24:40.699Z,95491.84
2022-09-14T09:27:27.870Z,95492.00
2022-09-14T09:30:15.659Z,95486.69
2022-09-14T09:33:02.108Z,95493.47
2022-09-14T09:36:16.053Z,95483.34
2022-09-14T09:39:05.468Z,95490.28
2022-09-14T09:41:57.587Z,95486.88
2022-09-14T09:45:06.742Z,95482.38
2022-09-14T09:47:52.547Z,95472.41
2022-09-14T09:50:59.794Z,95467.84
2022-09-14T09:54:19.509Z,95476.69
2022-09-14T09:57:31.903Z,95481.91
2022-09-14T10:00:24.368Z,95462.47
2022-09-14T10:03:28.302Z,95476.31
2022-09-14T10:06:14.837Z,95460.41
2022-09-14T10:09:00.855Z,95450.69
2022-09-14T10:11:48.123Z,95454.00
2022-09-14T10:14:35.961Z,95456.41
2022-09-14T10:17:23.247Z,95466.34
2022-09-14T10:20:22.507Z,95465.72
2022-09-14T10:23:18.725Z,95459.19
2022-09-14T10:26:10.872Z,95463.19
2022-09-14T10:29:20.721Z,95457.78
2022-09-14T10:32:17.757Z,95443.81
2022-09-14T10:35:15.614Z,95436.44
2022-09-14T10:38:20.239Z,95429.06
2022-09-14T10:41:36.935Z,95425.31
2022-09-14T10:44:44.067Z,95418.75
2022-09-14T10:47:45.395Z,95423.19
2022-09-14T10:50:41.293Z,95426.38
2022-09-14T10:53:57.590Z,95421.00
2022-09-14T10:57:14.211Z,95415.66
2022-09-14T11:00:13.170Z,95416.53
2022-09-14T11:03:09.266Z,95416.59
2022-09-14T11:06:02.748Z,95426.91
2022-09-14T11:09:19.845Z,95419.16
2022-09-14T11:12:38.398Z,95419.25
2022-09-14T11:15:31.804Z,95417.75
2022-09-14T11:19:02.836Z,95424.13
2022-09-14T11:21:50.673Z,95416.34
2022-09-14T11:25:13.016Z,95417.94
2022-09-14T11:28:01.145Z,95408.97
2022-09-14T11:31:31.680Z,95407.84
2022-09-14T11:34:48.143Z,95417.06
2022-09-14T11:37:40.690Z,95429.41
2022-09-14T11:40:46.456Z,95422.44
2022-09-14T11:43:56.463Z,95420.13
2022-09-14T11:47:08.878Z,95425.72
2022-09-14T11:50:16.849Z,95426.88
2022-09-14T11:53:09.620Z,95428.78
2022-09-14T11:55:55.812Z,95424.72
2022-09-14T11:58:41.522Z,95432.38
2022-09-14T12:01:32.230Z,95427.34
2022-09-14T12:04:19.511Z,95418.22
2022-09-14T12:07:05.672Z,95412.53
2022-09-14T12:09:53.369Z,95409.97
2022-09-14T12:12:40.697Z,95414.88
2022-09-14T12:15:26.545Z,95421.34
2022-09-14T12:18:13.412Z,95413.00
2022-09-14T12:21:18.084Z,95419.69
2022-09-14T12:24:14.669Z,95409.63
2022-09-14T12:27:15.508Z,95415.25
2022-09-14T12:30:01.223Z,95414.94
2022-09-14T12:32:47.348Z,95407.78
2022-09-14T12:35:45.914Z,95403.47
2022-09-14T12:38:31.883Z,95406.25
2022-09-14T12:41:20.656Z,95405.66
2022-09-14T12:44:33.180Z,95406.59
2022-09-14T12:47:25.484Z,95411.56
2022-09-14T12:50:19.874Z,95397.88
2022-09-14T12:53:35.339Z,95405.44
2022-09-14T12:56:31.313Z,95404.75
2022-09-14T12:59:38.896Z,95402.34
2022-09-14T13:02:48.493Z,95388.13
2022-09-14T13:05:34.740Z,95397.72
2022-09-14T13:08:23.737Z,95393.78
2022-09-14T13:11:10.192Z,95393.03
2022-09-14T13:13:56.484Z,95385.91
2022-09-14T13:16:44.641Z,95383.19
2022-09-14T13:19:32.776Z,95390.72
2022-09-14T13:22:24.421Z,95385.63
2022-09-14T13:25:27.130Z,95384.50
2022-09-14T13:28:18.144Z,95385.00
2022-09-14T13:31:05.431Z,95368.88
2022-09-14T13:33:52.872Z,95369.34
2022-09-14T13:36:42.442Z,95372.19
2022-09-14T13:39:34.514Z,95365.53
2022-09-14T13:42:21.879Z,95366.81
2022-09-14T13:45:08.683Z,95365.31
2022-09-14T13:47:55.070Z,95359.41
2022-09-14T13:50:44.090Z,95363.38
2022-09-14T13:53:42.087Z,95361.88
2022-09-14T13:56:33.985Z,95361.88
2022-09-14T13:59:21.807Z,95356.00
2022-09-14T14:02:16.398Z,95356.06
2022-09-14T14:05:04.098Z,95360.84
2022-09-14T14:07:50.081Z,95356.91
2022-09-14T14:11:41.247Z,95354.56
2022-09-14T14:14:31.313Z,95353.81
2022-09-14T14:17:37.003Z,95354.59
2022-09-14T14:20:36.753Z,95345.16
2022-09-14T14:23:23.176Z,95346.72
2022-09-14T14:26:14.601Z,95338.84
2022-09-14T14:29:09.771Z,95336.47
2022-09-14T14:31:56.613Z,95330.19
2022-09-14T14:34:42.875Z,95329.41
2022-09-14T14:37:28.734Z,95331.00
2022-09-14T14:40:15.892Z,95325.88
2022-09-14T14:43:05.562Z,95331.00
2022-09-14T14:45:57.749Z,95333.34
2022-09-14T14:48:43.820Z,95323.53
2022-09-14T14:51:30.496Z,95319.63
2022-09-14T14:54:18.837Z,95327.09
2022-09-14T14:57:05.288Z,95335.38
2022-09-14T14:59:52.858Z,95326.34
2022-09-14T15:02:38.898Z,95328.69
2022-09-14T15:05:25.677Z,95328.69
2022-09-14T15:08:16.248Z,95325.56
2022-09-14T15:11:02.341Z,95322.38
2022-09-14T15:13:48.748Z,95318.47
2022-09-14T15:16:35.148Z,95312.97
2022-09-14T15:19:21.438Z,95301.88
2022-09-14T15:22:07.456Z,95304.66
2022-09-14T15:24:53.371Z,95308.59
2022-09-14T15:27:40.412Z,95306.25
2022-09-14T15:30:26.644Z,95305.88
2022-09-14T15:33:12.697Z,95297.97
2022-09-14T15:35:58.800Z,95301.91
2022-09-14T15:38:44.575Z,95302.69
2022-09-14T15:41:30.400Z,95307.44
2022-09-14T15:44:16.441Z,95301.94
2022-09-14T15:47:02.184Z,95291.69
2022-09-14T15:49:51.837Z,95290.88
2022-09-14T15:52:39.040Z,95296.41
2022-09-14T15:55:24.723Z,95298.75
2022-09-14T15:58:11.447Z,95303.09
2022-09-14T16:00:57.721Z,95296.41
2022-09-14T16:03:44.145Z,95301.13
2022-09-14T16:06:30.710Z,95297.19
2022-09-14T16:09:18.279Z,95292.47
2022-09-14T16:12:04.647Z,95300.75
2022-09-14T16:14:50.507Z,95300.75
2022-09-14T16:17:36.525Z,95298.78
2022-09-14T16:20:22.864Z,95294.44
2022-09-14T16:23:09.143Z,95279.50
2022-09-14T16:25:55.152Z,95290.91
2022-09-14T16:28:42.483Z,95285.00
2022-09-14T16:31:34.674Z,95292.47
2022-09-14T16:34:27.432Z,95298.38
2022-09-14T16:37:13.839Z,95308.22
2022-09-14T16:39:59.963Z,95307.00
2022-09-14T16:42:48.095Z,95312.91
2022-09-14T16:45:33.938Z,95316.06
2022-09-14T16:48:19.810Z,95310.53
2022-09-14T16:51:06.633Z,95305.81
2022-09-14T16:53:52.922Z,95309.38
2022-09-14T16:56:39.095Z,95321.94
2022-09-14T16:59:25.611Z,95327.84
2022-09-14T17:02:11.873Z,95333.34
2022-09-14T17:04:58.304Z,95329.00
2022-09-14T17:07:44.172Z,95341.22
2022-09-14T17:10:34.362Z,95335.28
2022-09-14T17:13:26.035Z,95341.19
2022-09-14T17:16:19.893Z,95332.13
2022-09-14T17:19:06.149Z,95331.72
2022-09-14T17:21:52.245Z,95332.88
2022-09-14T17:24:38.618Z,95342.72
2022-09-14T17:27:24.334Z,95346.25
2022-09-14T17:30:10.814Z,95359.63
2022-09-14T17:32:56.669Z,95363.13
2022-09-14T17:35:58.609Z,95356.47
2022-09-14T17:38:44.990Z,95365.50
2022-09-14T17:41:33.186Z,95366.63
2022-09-14T17:44:20.052Z,95363.44
2022-09-14T17:47:06.165Z,95368.59
2022-09-14T17:49:52.278Z,95363.84
2022-09-14T17:52:38.059Z,95372.84
2022-09-14T17:55:24.755Z,95370.88
2022-09-14T17:58:10.924Z,95381.09
2022-09-14T18:01:30.748Z,95383.44
2022-09-14T18:04:17.023Z,95381.81
2022-09-14T18:07:04.778Z,95399.13
2022-09-14T18:09:50.649Z,95394.41
2022-09-14T18:12:36.841Z,95395.19
2022-09-14T18:15:22.793Z,95402.22
2022-09-14T18:18:08.610Z,95402.22
2022-09-14T18:20:54.239Z,95402.97
2022-09-14T18:23:40.091Z,95408.06
2022-09-14T18:26:26.741Z,95411.59
2022-09-14T18:29:17.754Z,95411.59
2022-09-14T18:32:03.674Z,95426.13
2022-09-14T18:34:49.412Z,95429.63
2022-09-14T18:37:35.256Z,95432.34
2022-09-14T18:40:21.736Z,95436.66
2022-09-14T18:43:08.606Z,95451.56
2022-09-14T18:45:54.827Z,95451.56
2022-09-14T18:48:43.671Z,95441.69
2022-09-14T18:51:30.621Z,95455.41
2022-09-14T18:54:16.929Z,95456.16
2022-09-14T18:57:02.801Z,95462.41
2022-09-14T18:59:49.507Z,95461.19
2022-09-14T19:02:36.558Z,95454.06
2022-09-14T19:05:23.960Z,95451.66
2022-09-14T19:08:10.213Z,95473.25
2022-09-14T19:10:56.169Z,95484.59
2022-09-14T19:13:42.152Z,95482.56
2022-09-14T19:16:29.238Z,95481.78
2022-09-14T19:19:15.638Z,95481.78
2022-09-14T19:22:01.617Z,95487.59
2022-09-14T19:24:47.418Z,95483.63
2022-09-14T19:27:33.580Z,95481.28
2022-09-14T19:30:19.398Z,95468.28
2022-09-14T19:33:05.278Z,95467.44
2022-09-14T19:35:51.273Z,95469.78
2022-09-14T19:38:37.551Z,95470.50
2022-09-14T19:41:23.664Z,95472.81
2022-09-14T19:44:10.952Z,95475.13
2022-09-14T19:46:56.634Z,95474.34
2022-09-14T19:49:42.473Z,95477.03
2022-09-14T19:52:28.083Z,95468.38
2022-09-14T19:55:13.690Z,95472.25
2022-09-14T19:57:59.631Z,95477.69
2022-09-14T20:00:45.702Z,95464.72
2022-09-14T20:03:34.159Z,95459.22
2022-09-14T20:06:26.700Z,95454.47
2022-09-14T20:09:21.220Z,95458.31
2022-09-14T20:12:06.916Z,95462.22
2022-09-14T20:14:52.838Z,95452.78
2022-09-14T20:17:38.610Z,95470.41
2022-09-14T20:20:24.314Z,95470.78
2022-09-14T20:23:10.064Z,95468.44
2022-09-14T20:25:56.994Z,95474.66
2022-09-14T20:28:43.541Z,95466.00
2022-09-14T20:31:30.766Z,95461.25
2022-09-14T20:34:20.619Z,95444.75
2022-09-14T20:37:06.747Z,95464.34
2022-09-14T20:39:52.825Z,95462.75
2022-09-14T20:42:38.546Z,95465.06
2022-09-14T20:45:24.289Z,95475.63
2022-09-14T20:48:09.885Z,95476.78
2022-09-14T20:50:56.686Z,95483.03
2022-09-14T20:53:43.186Z,95469.63
2022-09-14T20:56:31.664Z,95460.97
2022-09-14T20:59:27.575Z,95478.59
2022-09-14T21:02:13.383Z,95462.47
2022-09-14T21:05:00.074Z,95458.56
2022-09-14T21:08:01.646Z,95468.69
2022-09-14T21:10:47.632Z,95475.59
2022-09-14T21:13:34.398Z,95477.25
2022-09-14T21:16:25.203Z,95481.88
2022-09-14T21:19:27.174Z,95481.88
2022-09-14T21:22:13.138Z,95487.38
2022-09-14T21:24:58.836Z,95488.91
2022-09-14T21:27:44.498Z,95491.56
2022-09-14T21:30:31.432Z,95486.09
2022-09-14T21:33:17.698Z,95484.09
2022-09-14T21:36:06.224Z,95476.25
2022-09-14T21:38:56.996Z,95467.16
2022-09-14T21:41:44.850Z,95476.53
2022-09-14T21:44:32.158Z,95472.16
2022-09-14T21:47:18.208Z,95482.25
2022-09-14T21:50:04.845Z,95481.44
2022-09-14T21:52:50.726Z,95483.69
2022-09-14T21:55:40.210Z,95484.41
2022-09-14T21:58:26.207Z,95486.25
2022-09-14T22:01:12.233Z,95484.22
2022-09-14T22:04:03.785Z,95495.16
2022-09-14T22:06:51.475Z,95491.97
2022-09-14T22:09:37.228Z,95485.28
2022-09-14T22:12:22.955Z,95485.63
2022-09-14T22:15:09.241Z,95491.47
2022-09-14T22:17:58.351Z,95493.38
2022-09-14T22:20:46.180Z,95498.88
2022-09-14T22:23:32.560Z,95491.81
2022-09-14T22:26:20.192Z,95483.06
2022-09-14T22:29:07.668Z,95485.38
2022-09-14T22:31:53.459Z,95485.34
2022-09-14T22:34:41.581Z,95491.53
2022-09-14T22:37:27.743Z,95493.84
2022-09-14T22:40:13.490Z,95489.88
2022-09-14T22:42:59.105Z,95483.56
2022-09-14T22:45:44.839Z,95500.81
2022-09-14T22:48:31.282Z,95503.09
2022-09-14T22:51:23.151Z,95504.25
2022-09-14T22:54:08.856Z,95506.13
2022-09-14T22:56:54.466Z,95494.75
2022-09-14T22:59:39.954Z,95495.13
2022-09-14T23:02:25.773Z,95486.47
2022-09-14T23:05:11.746Z,95489.56
2022-09-14T23:07:57.537Z,95483.19
2022-09-14T23:10:43.152Z,95493.34
2022-09-14T23:13:28.733Z,95485.88
2022-09-14T23:16:19.865Z,95480.75
2022-09-14T23:19:09.750Z,95469.78
2022-09-14T23:21:55.819Z,95476.44
2022-09-14T23:24:41.926Z,95471.66
2022-09-14T23:27:27.881Z,95466.53
2022-09-14T23:30:13.915Z,95475.16
2022-09-14T23:33:00.293Z,95478.25
2022-09-14T23:35:49.503Z,95482.06
2022-09-14T23:38:35.459Z,95474.19
2022-09-14T23:41:22.895Z,95476.47
2022-09-14T23:44:12.911Z,95472.84
2022-09-14T23:46:58.703Z,95479.91
2022-09-14T23:49:44.461Z,95482.66
2022-09-14T23:52:30.194Z,95476.28
2022-09-14T23:55:16.130Z,95472.28
2022-09-14T23:58:01.828Z,95485.59
